AKST,Max TemperatureF,Mean TemperatureF,Min TemperatureF,Max Dew PointF,MeanDew PointF,Min DewpointF,Max Humidity, Mean Humidity, Min Humidity, Max Sea Level PressureIn, Mean Sea Level PressureIn, Min Sea Level PressureIn, Max VisibilityMiles, Mean VisibilityMiles, Min VisibilityMiles, Max Wind SpeedMPH, Mean Wind SpeedMPH, Max Gust SpeedMPH,PrecipitationIn, CloudCover, Events, WindDirDegrees
2013-2-1,39,37,35,39,37,34,0,0,0,29.77,29.61,29.52,10,2,0,10,14,12,1.73,8,Fog-Rain,38
2013-2-2,39,38,36,38,37,36,0,0,0,29.51,29.33,29.05,10,4,0,29,15,35,0.36,8,Fog-Rain,81
2013-2-3,40,38,36,36,34,32,0,0,0,29.36,29.23,29.05,10,10,7,21,8,25,0.02,7,Rain,157
2013-2-4,40,38,36,37,35,34,0,0,0,29.57,29.48,29.38,10,10,6,17,10,21,0.12,8,Rain,123
2013-2-5,42,35,28,37,33,26,0,0,0,29.56,29.54,29.52,10,10,9,9,5,18,T,6,,313
2013-2-6,35,30,25,29,17,11,0,0,0,29.64,29.59,29.54,10,9,2,22,9,28,0.01,4,Snow,279
2013-2-7,42,34,25,35,29,21,0,0,0,29.55,29.33,29.19,10,7,2,9,4,12,0.22,6,Rain-Snow,255
2013-2-8,39,31,23,36,29,21,0,0,0,29.66,29.58,29.42,10,10,5,31,9,36,0.24,7,Rain,225
2013-2-9,42,39,35,39,37,34,0,0,0,29.36,29.07,28.80,10,7,2,13,16,17,0.66,8,Rain-Snow,119
2013-2-10,40,34,28,30,24,17,0,0,0,29.65,29.36,28.96,10,10,10,23,9,30,T,5,,245
2013-2-11,36,27,18,32,20,7,0,0,0,29.75,29.70,29.66,10,9,3,15,4,20,T,4,Snow,213
2013-2-12,39,33,27,36,31,24,0,0,0,29.76,29.63,29.55,10,8,1,14,6,18,0.13,6,Rain-Snow,283
2013-2-13,39,32,25,37,31,22,0,0,0,29.77,29.57,29.42,10,7,0,32,11,38,0.23,7,Fog-Rain-Snow,99
2013-2-14,40,37,33,36,33,31,0,0,0,29.53,29.29,29.07,10,7,2,22,11,28,0.50,7,Rain-Snow,323
2013-2-15,33,28,23,30,17,3,0,0,0,30.04,29.80,29.53,10,8,2,25,16,35,0.05,5,Snow,294
2013-2-16,35,26,16,34,24,5,0,0,0,30.07,29.78,29.49,10,6,0,18,6,21,0.22,7,Rain-Snow,126
2013-2-17,36,31,25,32,24,5,0,0,0,29.75,29.58,29.49,10,7,1,44,16,60,0.01,7,Snow,294
2013-2-18,34,30,25,19,12,4,0,0,0,29.86,29.81,29.77,10,10,10,30,11,40,0.00,5,,305
2013-2-19,35,31,26,34,29,18,0,0,0,29.76,29.31,28.96,10,6,0,20,6,24,0.50,8,Fog-Rain-Snow,341
2013-2-20,36,32,27,33,29,21,0,0,0,29.28,29.07,28.91,10,8,1,24,9,29,0.05,7,Rain-Snow,288
2013-2-21,29,26,22,23,20,14,0,0,0,29.33,29.19,29.10,10,10,10,29,15,38,T,6,,298
2013-2-22,35,31,27,29,20,14,0,0,0,29.53,29.42,29.22,10,8,0,31,10,38,0.09,5,Fog-Snow,241
2013-2-23,39,33,27,34,28,24,0,0,0,29.26,29.13,29.03,10,8,1,18,9,24,0.17,6,Rain-Snow,193
2013-2-24,39,34,29,34,32,27,0,0,0,29.57,29.31,29.19,10,7,1,20,8,24,0.29,7,Rain-Snow,149
2013-2-25,36,31,26,36,31,24,0,0,0,29.56,29.36,29.16,10,6,1,38,17,46,0.42,8,Rain-Snow,60
2013-2-26,40,37,34,36,34,33,0,0,0,29.20,29.14,29.08,10,8,3,37,12,46,0.55,7,Rain-Snow,26
2013-2-27,38,35,32,34,31,24,0,0,0,29.21,29.11,29.06,10,10,4,12,5,15,0.06,7,Rain-Snow,224
2013-2-28,35,30,24,28,24,21,0,0,0,29.48,29.33,29.22,10,10,10,14,6,18,0.00,5,,280